sensor_id;sensor_type;location;lat;lon;timestamp;P1;durP1;ratioP1;P2;durP2;ratioP2
37341;SDS011;58643;49.052;8.518;2022-10-16T05:31:31;12.25;;;5.32;;
37341;SDS011;58643;49.052;8.518;2022-10-16T05:33:57;13.00;;;4.95;;
37341;SDS011;58643;49.052;8.518;2022-10-16T05:36:24;7.03;;;4.38;;
37341;SDS011;58643;49.052;8.518;2022-10-16T05:38:51;15.95;;;4.40;;
37341;SDS011;58643;49.052;8.518;2022-10-16T05:41:16;12.25;;;4.22;;
37341;SDS011;58643;49.052;8.518;2022-10-16T05:43:46;13.70;;;4.25;;
37341;SDS011;58643;49.052;8.518;2022-10-16T05:46:12;10.88;;;3.53;;
37341;SDS011;58643;49.052;8.518;2022-10-16T05:48:38;6.80;;;3.65;;
37341;SDS011;58643;49.052;8.518;2022-10-16T05:51:04;9.93;;;3.42;;
37341;SDS011;58643;49.052;8.518;2022-10-16T05:53:32;10.35;;;4.45;;
37341;SDS011;58643;49.052;8.518;2022-10-16T05:55:59;6.65;;;3.75;;
37341;SDS011;58643;49.052;8.518;2022-10-16T05:58:28;8.73;;;3.72;;
37341;SDS011;58643;49.052;8.518;2022-10-16T06:00:56;6.53;;;3.78;;
37341;SDS011;58643;49.052;8.518;2022-10-16T06:03:23;11.63;;;5.68;;
37341;SDS011;58643;49.052;8.518;2022-10-16T06:05:49;11.02;;;6.72;;
37341;SDS011;58643;49.052;8.518;2022-10-16T06:08:15;9.25;;;6.63;;
37341;SDS011;58643;49.052;8.518;2022-10-16T06:10:41;8.95;;;6.65;;
37341;SDS011;58643;49.052;8.518;2022-10-16T06:13:07;12.50;;;6.60;;
37341;SDS011;58643;49.052;8.518;2022-10-16T06:15:32;15.23;;;7.35;;
37341;SDS011;58643;49.052;8.518;2022-10-16T06:17:58;10.98;;;6.78;;
37341;SDS011;58643;49.052;8.518;2022-10-16T06:20:23;12.77;;;5.38;;
37341;SDS011;58643;49.052;8.518;2022-10-16T06:22:49;9.10;;;4.80;;
37341;SDS011;58643;49.052;8.518;2022-10-16T06:25:14;8.70;;;4.20;;
37341;SDS011;58643;49.052;8.518;2022-10-16T06:27:40;7.88;;;4.30;;
37341;SDS011;58643;49.052;8.518;2022-10-16T06:30:06;8.05;;;5.63;;
37341;SDS011;58643;49.052;8.518;2022-10-16T06:32:32;8.93;;;5.30;;
37341;SDS011;58643;49.052;8.518;2022-10-16T06:34:58;10.32;;;6.25;;
37341;SDS011;58643;49.052;8.518;2022-10-16T06:37:24;10.82;;;5.20;;
37341;SDS011;58643;49.052;8.518;2022-10-16T06:39:50;10.00;;;5.05;;
37341;SDS011;58643;49.052;8.518;2022-10-16T06:42:17;7.10;;;4.38;;
37341;SDS011;58643;49.052;8.518;2022-10-16T06:44:43;15.25;;;7.70;;
37341;SDS011;58643;49.052;8.518;2022-10-16T06:47:09;15.73;;;8.60;;
37341;SDS011;58643;49.052;8.518;2022-10-16T06:49:34;12.88;;;7.25;;
37341;SDS011;58643;49.052;8.518;2022-10-16T06:52:00;8.10;;;5.70;;
37341;SDS011;58643;49.052;8.518;2022-10-16T06:54:26;9.60;;;5.90;;
37341;SDS011;58643;49.052;8.518;2022-10-16T06:56:52;11.70;;;7.28;;
37341;SDS011;58643;49.052;8.518;2022-10-16T06:59:19;10.30;;;6.35;;
37341;SDS011;58643;49.052;8.518;2022-10-16T07:01:45;5.35;;;3.72;;
37341;SDS011;58643;49.052;8.518;2022-10-16T07:04:11;5.97;;;3.30;;
37341;SDS011;58643;49.052;8.518;2022-10-16T07:06:36;5.82;;;3.53;;
37341;SDS011;58643;49.052;8.518;2022-10-16T07:09:03;7.50;;;3.92;;
37341;SDS011;58643;49.052;8.518;2022-10-16T07:11:31;7.43;;;4.20;;
37341;SDS011;58643;49.052;8.518;2022-10-16T07:13:57;9.20;;;4.78;;
37341;SDS011;58643;49.052;8.518;2022-10-16T07:16:23;6.95;;;4.82;;
37341;SDS011;58643;49.052;8.518;2022-10-16T07:18:54;6.90;;;5.38;;
37341;SDS011;58643;49.052;8.518;2022-10-16T07:21:23;14.05;;;7.03;;
37341;SDS011;58643;49.052;8.518;2022-10-16T07:23:51;18.05;;;8.60;;
37341;SDS011;58643;49.052;8.518;2022-10-16T07:26:18;9.52;;;5.43;;
37341;SDS011;58643;49.052;8.518;2022-10-16T07:28:43;10.55;;;6.32;;
37341;SDS011;58643;49.052;8.518;2022-10-16T07:31:10;17.70;;;6.07;;
37341;SDS011;58643;49.052;8.518;2022-10-16T07:33:42;9.55;;;5.80;;
37341;SDS011;58643;49.052;8.518;2022-10-16T07:36:09;13.97;;;6.73;;
37341;SDS011;58643;49.052;8.518;2022-10-16T07:38:36;8.82;;;4.68;;
37341;SDS011;58643;49.052;8.518;2022-10-16T07:41:02;10.85;;;6.07;;
37341;SDS011;58643;49.052;8.518;2022-10-16T07:43:30;9.43;;;4.75;;
37341;SDS011;58643;49.052;8.518;2022-10-16T07:45:56;17.77;;;5.32;;
37341;SDS011;58643;49.052;8.518;2022-10-16T07:48:22;17.17;;;6.35;;
37341;SDS011;58643;49.052;8.518;2022-10-16T07:50:48;14.73;;;6.65;;
37341;SDS011;58643;49.052;8.518;2022-10-16T07:53:14;17.15;;;7.03;;
37341;SDS011;58643;49.052;8.518;2022-10-16T07:55:40;13.75;;;6.50;;
37341;SDS011;58643;49.052;8.518;2022-10-16T07:58:06;11.38;;;4.80;;
37341;SDS011;58643;49.052;8.518;2022-10-16T08:00:32;8.80;;;4.72;;
37341;SDS011;58643;49.052;8.518;2022-10-16T08:02:58;8.70;;;4.65;;
37341;SDS011;58643;49.052;8.518;2022-10-16T08:05:27;13.27;;;4.10;;
37341;SDS011;58643;49.052;8.518;2022-10-16T08:07:53;7.68;;;4.20;;
37341;SDS011;58643;49.052;8.518;2022-10-16T08:10:19;7.50;;;4.43;;
37341;SDS011;58643;49.052;8.518;2022-10-16T08:12:47;4.82;;;3.72;;
37341;SDS011;58643;49.052;8.518;2022-10-16T08:15:12;16.45;;;7.05;;
37341;SDS011;58643;49.052;8.518;2022-10-16T08:17:38;17.48;;;6.43;;
37341;SDS011;58643;49.052;8.518;2022-10-16T08:20:04;9.63;;;5.18;;
37341;SDS011;58643;49.052;8.518;2022-10-16T08:22:30;10.13;;;2.70;;
37341;SDS011;58643;49.052;8.518;2022-10-16T08:24:56;7.32;;;2.75;;
37341;SDS011;58643;49.052;8.518;2022-10-16T08:27:21;6.53;;;2.20;;
37341;SDS011;58643;49.052;8.518;2022-10-16T08:29:48;3.90;;;2.20;;
37341;SDS011;58643;49.052;8.518;2022-10-16T08:32:14;3.13;;;1.88;;
37341;SDS011;58643;49.052;8.518;2022-10-16T08:34:40;6.70;;;2.00;;
37341;SDS011;58643;49.052;8.518;2022-10-16T08:37:05;4.35;;;1.95;;
37341;SDS011;58643;49.052;8.518;2022-10-16T08:39:33;6.00;;;1.83;;
37341;SDS011;58643;49.052;8.518;2022-10-16T08:44:36;7.22;;;2.67;;
37341;SDS011;58643;49.052;8.518;2022-10-16T08:50:13;10.18;;;2.75;;
37341;SDS011;58643;49.052;8.518;2022-10-16T08:52:43;8.18;;;2.90;;
37341;SDS011;58643;49.052;8.518;2022-10-16T08:56:10;10.50;;;2.70;;
37341;SDS011;58643;49.052;8.518;2022-10-16T08:58:13;4.93;;;2.53;;
37341;SDS011;58643;49.052;8.518;2022-10-16T09:00:46;4.50;;;2.00;;
37341;SDS011;58643;49.052;8.518;2022-10-16T09:03:23;9.35;;;2.15;;
37341;SDS011;58643;49.052;8.518;2022-10-16T09:06:10;7.05;;;2.58;;
37341;SDS011;58643;49.052;8.518;2022-10-16T09:23:18;6.47;;;1.67;;
37341;SDS011;58643;49.052;8.518;2022-10-16T09:25:49;2.97;;;1.80;;
37341;SDS011;58643;49.052;8.518;2022-10-16T09:28:16;3.97;;;1.25;;
37341;SDS011;58643;49.052;8.518;2022-10-16T09:30:43;6.28;;;4.07;;
37341;SDS011;58643;49.052;8.518;2022-10-16T09:33:10;5.78;;;1.65;;
37341;SDS011;58643;49.052;8.518;2022-10-16T09:35:38;2.20;;;1.20;;
37341;SDS011;58643;49.052;8.518;2022-10-16T09:38:08;2.42;;;1.30;;
37341;SDS011;58643;49.052;8.518;2022-10-16T09:40:45;3.83;;;1.35;;
37341;SDS011;58643;49.052;8.518;2022-10-16T09:43:18;3.65;;;1.40;;
37341;SDS011;58643;49.052;8.518;2022-10-16T09:46:00;5.80;;;2.00;;
37341;SDS011;58643;49.052;8.518;2022-10-16T09:48:33;2.63;;;1.50;;
37341;SDS011;58643;49.052;8.518;2022-10-16T09:51:45;5.53;;;1.65;;
37341;SDS011;58643;49.052;8.518;2022-10-16T09:56:33;4.57;;;1.27;;
37341;SDS011;58643;49.052;8.518;2022-10-16T09:59:02;2.10;;;1.30;;
37341;SDS011;58643;49.052;8.518;2022-10-16T10:01:39;7.90;;;1.50;;
37341;SDS011;58643;49.052;8.518;2022-10-16T10:04:13;3.83;;;1.40;;
37341;SDS011;58643;49.052;8.518;2022-10-16T10:09:16;6.78;;;1.40;;
37341;SDS011;58643;49.052;8.518;2022-10-16T10:11:48;6.72;;;1.20;;
37341;SDS011;58643;49.052;8.518;2022-10-16T10:14:35;4.43;;;1.25;;
37341;SDS011;58643;49.052;8.518;2022-10-16T10:22:38;4.00;;;1.55;;
37341;SDS011;58643;49.052;8.518;2022-10-16T10:30:24;5.78;;;1.90;;
37341;SDS011;58643;49.052;8.518;2022-10-16T10:33:12;6.68;;;3.33;;
37341;SDS011;58643;49.052;8.518;2022-10-16T10:35:53;5.15;;;1.50;;
37341;SDS011;58643;49.052;8.518;2022-10-16T10:38:39;5.88;;;1.55;;
37341;SDS011;58643;49.052;8.518;2022-10-16T10:46:50;5.70;;;1.60;;
37341;SDS011;58643;49.052;8.518;2022-10-16T10:52:07;5.10;;;1.52;;
37341;SDS011;58643;49.052;8.518;2022-10-16T11:00:40;5.85;;;1.50;;
37341;SDS011;58643;49.052;8.518;2022-10-16T11:03:19;2.85;;;1.50;;
37341;SDS011;58643;49.052;8.518;2022-10-16T11:06:05;7.25;;;1.58;;
37341;SDS011;58643;49.052;8.518;2022-10-16T11:09:14;4.18;;;2.03;;
37341;SDS011;58643;49.052;8.518;2022-10-16T11:16:56;5.75;;;2.05;;
37341;SDS011;58643;49.052;8.518;2022-10-16T11:19:37;9.25;;;5.15;;
37341;SDS011;58643;49.052;8.518;2022-10-16T11:22:27;2.58;;;1.67;;
37341;SDS011;58643;49.052;8.518;2022-10-16T11:25:20;6.13;;;1.90;;
